createdAt,value
2018-12-22T07:46:40.240Z,3.30
2018-12-22T07:49:09.278Z,3.63
2018-12-22T07:51:37.541Z,1.40
2018-12-22T07:54:05.754Z,2.03
2018-12-22T07:56:33.954Z,2.30
2018-12-22T07:59:02.172Z,2.30
2018-12-22T08:01:30.447Z,2.07
2018-12-22T08:03:58.665Z,3.43
2018-12-22T08:06:26.858Z,1.87
2018-12-22T08:09:00.282Z,3.27
2018-12-22T08:11:28.560Z,3.97
2018-12-22T08:13:56.805Z,1.83
2018-12-22T08:16:24.997Z,2.97
2018-12-22T08:18:53.186Z,1.60
2018-12-22T08:21:21.390Z,2.60
2018-12-22T08:23:49.582Z,2.90
2018-12-22T08:26:17.798Z,3.17
2018-12-22T08:28:45.990Z,1.70
2018-12-22T08:31:14.282Z,5.07
2018-12-22T08:33:45.790Z,3.00
2018-12-22T08:36:14.006Z,1.40
2018-12-22T08:38:42.198Z,4.27
2018-12-22T08:41:10.570Z,2.27
2018-12-22T08:43:38.927Z,1.60
2018-12-22T08:46:07.273Z,2.50
2018-12-22T08:48:35.541Z,1.63
2018-12-22T08:51:03.758Z,3.43
2018-12-22T08:53:32.074Z,3.00
2018-12-22T08:56:00.296Z,3.93
2018-12-22T08:58:28.501Z,3.17
2018-12-22T09:00:56.716Z,1.90
2018-12-22T09:03:24.906Z,4.60
2018-12-22T09:05:53.122Z,3.37
2018-12-22T09:08:21.336Z,3.00
2018-12-22T09:10:49.547Z,4.13
2018-12-22T09:13:20.963Z,4.33
2018-12-22T09:15:48.052Z,4.57
2018-12-22T09:18:16.244Z,3.57
2018-12-22T09:20:44.460Z,2.07
2018-12-22T09:23:12.734Z,1.93
2018-12-22T09:25:40.950Z,2.13
2018-12-22T09:28:09.148Z,2.63
2018-12-22T09:30:37.354Z,2.20
2018-12-22T09:33:05.570Z,3.93
2018-12-22T09:35:33.912Z,2.47
2018-12-22T09:38:02.115Z,2.70
2018-12-22T09:40:30.319Z,2.10
2018-12-22T09:42:58.619Z,5.20
2018-12-22T09:45:26.818Z,4.33
2018-12-22T09:47:55.033Z,5.77
2018-12-22T09:50:23.234Z,4.50
2018-12-22T09:52:51.476Z,4.83
2018-12-22T09:55:19.826Z,3.47
2018-12-22T09:57:48.033Z,3.53
2018-12-22T10:00:16.312Z,3.20
2018-12-22T10:02:44.526Z,3.63
2018-12-22T10:05:12.810Z,2.43
2018-12-22T10:07:41.025Z,3.87
2018-12-22T10:10:15.324Z,4.83
2018-12-22T10:12:43.536Z,3.33
2018-12-22T10:15:11.809Z,6.00
2018-12-22T10:17:40.171Z,2.87
2018-12-22T10:20:08.909Z,3.10
2018-12-22T10:22:37.114Z,3.27
2018-12-22T10:25:08.498Z,3.10
2018-12-22T10:27:36.725Z,2.03
2018-12-22T10:30:07.281Z,3.47
2018-12-22T10:32:35.498Z,2.57
2018-12-22T10:35:04.074Z,2.60
2018-12-22T10:37:32.286Z,3.13
2018-12-22T10:40:00.487Z,7.30
2018-12-22T10:42:28.707Z,7.27
2018-12-22T10:44:56.905Z,1.93
2018-12-22T10:47:25.115Z,6.13
2018-12-22T10:49:53.314Z,2.33
2018-12-22T10:52:21.655Z,3.67
2018-12-22T10:54:49.851Z,2.73
2018-12-22T10:57:18.062Z,3.43
2018-12-22T10:59:46.266Z,6.73
2018-12-22T11:02:14.574Z,3.67
2018-12-22T11:04:42.770Z,6.13
2018-12-22T11:09:45.598Z,4.30
2018-12-22T11:12:13.870Z,3.80
2018-12-22T11:14:42.077Z,5.73
2018-12-22T11:17:10.362Z,2.90
2018-12-22T11:19:38.578Z,4.90
2018-12-22T11:22:06.771Z,4.90
2018-12-22T11:24:35.005Z,2.63
2018-12-22T11:27:03.286Z,2.00
2018-12-22T11:29:31.645Z,1.80
2018-12-22T11:31:59.893Z,2.10
2018-12-22T11:34:28.108Z,1.87
2018-12-22T11:36:56.294Z,1.87
2018-12-22T11:39:24.506Z,1.80
2018-12-22T11:41:52.701Z,1.80
2018-12-22T11:44:20.911Z,1.80
2018-12-22T11:46:49.147Z,2.40
2018-12-22T11:49:31.845Z,1.60
2018-12-22T11:52:00.077Z,1.60
2018-12-22T11:54:28.286Z,1.40
2018-12-22T11:56:56.518Z,1.87
2018-12-22T11:59:24.815Z,1.53
2018-12-22T12:01:53.092Z,1.73
2018-12-22T12:04:21.304Z,1.70
2018-12-22T12:06:49.506Z,1.90
2018-12-22T12:09:17.738Z,6.70
2018-12-22T12:11:46.020Z,1.60
2018-12-22T12:14:14.240Z,1.60
2018-12-22T12:16:47.023Z,2.23
2018-12-22T12:19:21.961Z,1.60
2018-12-22T12:21:50.151Z,1.67
2018-12-22T12:24:18.443Z,1.40
2018-12-22T12:26:46.797Z,1.70
2018-12-22T12:29:15.016Z,2.90
2018-12-22T12:31:43.209Z,2.03
2018-12-22T12:34:11.421Z,2.20
2018-12-22T12:36:39.621Z,2.60
2018-12-22T12:39:11.213Z,2.67
2018-12-22T12:41:39.530Z,4.03
2018-12-22T12:44:07.825Z,2.70
2018-12-22T12:46:45.259Z,2.50
2018-12-22T12:49:14.047Z,2.67
2018-12-22T12:51:42.253Z,1.83
2018-12-22T12:54:10.454Z,2.60
2018-12-22T12:56:57.738Z,2.10
2018-12-22T12:59:26.994Z,1.80
2018-12-22T13:02:03.268Z,1.80
2018-12-22T13:04:31.498Z,2.80
2018-12-22T13:06:59.774Z,2.80
2018-12-22T13:09:27.993Z,2.00
2018-12-22T13:11:59.010Z,2.10
2018-12-22T13:14:27.211Z,2.27
2018-12-22T13:16:55.431Z,2.00
2018-12-22T13:19:23.618Z,1.87
2018-12-22T13:21:53.599Z,2.03
2018-12-22T13:24:21.802Z,2.10
2018-12-22T13:26:50.023Z,2.30
2018-12-22T13:29:18.216Z,2.00
2018-12-22T13:31:46.772Z,2.00
2018-12-22T13:34:14.974Z,2.40
2018-12-22T13:36:43.186Z,2.73
2018-12-22T13:39:18.552Z,2.80
2018-12-22T13:41:46.778Z,2.10
2018-12-22T13:44:14.977Z,2.37
2018-12-22T13:46:43.181Z,5.73
2018-12-22T13:49:11.610Z,2.37
2018-12-22T13:51:42.142Z,2.20
2018-12-22T13:54:10.368Z,1.77
2018-12-22T13:56:38.674Z,2.33
2018-12-22T13:59:06.946Z,2.20
2018-12-22T14:01:38.428Z,3.90
2018-12-22T14:04:06.621Z,3.00
2018-12-22T14:06:39.157Z,3.00
2018-12-22T14:09:08.320Z,2.43
2018-12-22T14:11:36.560Z,2.27
2018-12-22T14:14:05.454Z,3.30
2018-12-22T14:16:38.834Z,2.97
2018-12-22T14:19:08.506Z,2.67
2018-12-22T14:21:36.849Z,2.73
2018-12-22T14:24:17.398Z,2.33
2018-12-22T14:26:46.592Z,2.17
2018-12-22T14:29:21.514Z,2.97
2018-12-22T14:31:49.727Z,2.57
2018-12-22T14:34:23.410Z,2.90
2018-12-22T14:36:51.782Z,2.83
2018-12-22T14:39:19.969Z,2.43
2018-12-22T14:41:48.178Z,2.33
2018-12-22T14:44:16.370Z,4.50
2018-12-22T14:46:44.582Z,2.60
2018-12-22T14:49:12.779Z,2.40
2018-12-22T14:51:41.067Z,3.20
2018-12-22T14:54:12.334Z,4.30
2018-12-22T14:56:43.319Z,4.90
2018-12-22T14:59:13.573Z,2.40
2018-12-22T15:01:41.983Z,2.80
2018-12-22T15:04:10.306Z,2.87
2018-12-22T15:06:38.583Z,3.07
2018-12-22T15:09:13.275Z,3.33
2018-12-22T15:11:37.636Z,2.63
2018-12-22T15:14:05.929Z,3.00
2018-12-22T15:16:34.130Z,3.17
2018-12-22T15:19:02.351Z,3.17
2018-12-22T15:21:30.550Z,3.40
2018-12-22T15:23:58.809Z,2.67
2018-12-22T15:26:27.001Z,3.33
2018-12-22T15:28:55.287Z,3.10
2018-12-22T15:31:23.477Z,4.30
2018-12-22T15:33:51.770Z,3.83
2018-12-22T15:36:19.968Z,5.03
2018-12-22T15:38:48.177Z,2.40
2018-12-22T15:41:16.374Z,3.30
2018-12-22T15:43:44.581Z,3.30
2018-12-22T15:46:12.865Z,3.63
2018-12-22T15:48:41.088Z,2.97
2018-12-22T15:51:09.289Z,3.70
2018-12-22T15:53:37.506Z,3.60
2018-12-22T15:56:05.697Z,3.40
2018-12-22T15:58:33.987Z,2.90
2018-12-22T16:01:02.186Z,4.87
2018-12-22T16:03:30.409Z,3.23
2018-12-22T16:05:58.609Z,3.00
2018-12-22T16:08:26.901Z,3.23
2018-12-22T16:10:55.199Z,3.47
2018-12-22T16:13:23.423Z,4.30
2018-12-22T16:15:51.618Z,3.43
2018-12-22T16:18:19.845Z,3.33
2018-12-22T16:20:48.150Z,3.20
2018-12-22T16:23:16.370Z,3.13
2018-12-22T16:25:44.585Z,3.53
2018-12-22T16:28:17.410Z,3.20
2018-12-22T16:30:48.425Z,3.37
2018-12-22T16:33:16.613Z,3.13
2018-12-22T16:35:44.862Z,3.30
2018-12-22T16:38:13.054Z,3.83
2018-12-22T16:40:41.430Z,3.70
2018-12-22T16:43:12.075Z,3.20
2018-12-22T16:45:43.454Z,4.30
2018-12-22T16:48:11.667Z,5.10
2018-12-22T16:50:40.965Z,4.57
2018-12-22T16:53:09.164Z,4.73
2018-12-22T16:55:37.375Z,3.57
2018-12-22T16:58:11.378Z,4.50
2018-12-22T17:00:45.734Z,4.90
2018-12-22T17:03:13.934Z,4.93
2018-12-22T17:05:42.154Z,4.60
2018-12-22T17:08:10.358Z,6.47
2018-12-22T17:10:41.604Z,5.93
2018-12-22T17:13:10.729Z,4.73
2018-12-22T17:15:42.414Z,4.47
2018-12-22T17:18:10.610Z,5.10
2018-12-22T17:20:38.906Z,3.30
2018-12-22T17:24:12.118Z,3.50
2018-12-22T17:26:43.441Z,3.53
2018-12-22T17:29:11.645Z,10.07
2018-12-22T17:31:41.143Z,5.83
2018-12-22T17:34:09.368Z,4.30
2018-12-22T17:36:37.590Z,3.37
2018-12-22T17:39:08.458Z,4.07
2018-12-22T17:41:36.679Z,3.97
2018-12-22T17:44:04.874Z,6.03
2018-12-22T17:46:33.131Z,4.40
2018-12-22T17:49:01.331Z,5.27
2018-12-22T17:51:29.551Z,4.27
2018-12-22T17:53:57.746Z,4.20
2018-12-22T17:56:26.163Z,4.50
2018-12-22T17:58:54.361Z,3.97
2018-12-22T18:01:22.704Z,4.20
2018-12-22T18:03:50.914Z,4.53
2018-12-22T18:06:19.148Z,4.17
2018-12-22T18:08:47.455Z,4.23
2018-12-22T18:11:15.676Z,4.60
2018-12-22T18:13:43.874Z,4.93
2018-12-22T18:16:12.106Z,4.23
2018-12-22T18:18:41.332Z,4.40
2018-12-22T18:21:09.553Z,3.60
2018-12-22T18:23:37.763Z,3.20
2018-12-22T18:26:06.124Z,3.60
2018-12-22T18:28:36.052Z,3.40
2018-12-22T18:31:04.352Z,3.10
2018-12-22T18:33:36.014Z,3.73
2018-12-22T18:36:02.867Z,3.00
2018-12-22T18:38:31.088Z,3.13
2018-12-22T18:40:59.282Z,5.40
2018-12-22T18:43:27.499Z,3.53
2018-12-22T18:45:55.691Z,4.20
2018-12-22T18:48:23.987Z,3.47
2018-12-22T18:50:52.185Z,4.97
2018-12-22T18:53:20.395Z,4.47
2018-12-22T18:55:48.590Z,4.60
2018-12-22T18:58:16.805Z,4.13
2018-12-22T19:00:45.082Z,4.10
2018-12-22T19:03:13.294Z,5.67
2018-12-22T19:05:41.582Z,3.87
2018-12-22T19:08:13.012Z,3.77
2018-12-22T19:10:45.181Z,3.63
2018-12-22T19:13:13.394Z,3.90
2018-12-22T19:15:41.581Z,4.47
2018-12-22T19:18:09.802Z,5.17
2018-12-22T19:20:47.469Z,4.47
2018-12-22T19:23:16.013Z,4.97
2018-12-22T19:25:44.217Z,4.67
2018-12-22T19:28:12.430Z,6.63
2018-12-22T19:30:40.629Z,8.30
2018-12-22T19:33:08.842Z,7.00
2018-12-22T19:35:37.037Z,8.50
2018-12-22T19:38:05.241Z,8.53
2018-12-22T19:40:33.437Z,9.07
2018-12-22T19:43:01.646Z,11.80
2018-12-22T19:45:29.834Z,9.63
2018-12-22T19:47:58.047Z,8.23
2018-12-22T19:50:26.248Z,7.40
2018-12-22T19:52:54.459Z,7.00
2018-12-22T19:55:29.106Z,9.70
2018-12-22T19:57:57.325Z,6.87
2018-12-22T20:00:25.528Z,7.20
2018-12-22T20:02:53.803Z,7.17
2018-12-22T20:05:22.014Z,7.00
2018-12-22T20:07:50.218Z,7.33
2018-12-22T20:10:18.446Z,8.23
2018-12-22T20:12:46.646Z,11.17
2018-12-22T20:15:14.854Z,9.00
2018-12-22T20:17:43.050Z,8.93
2018-12-22T20:20:11.259Z,8.03
2018-12-22T20:22:39.458Z,8.93
2018-12-22T20:25:07.754Z,7.20
2018-12-22T20:27:35.946Z,9.13
2018-12-22T20:30:04.714Z,8.77
2018-12-22T20:32:32.905Z,8.23
2018-12-22T20:35:01.214Z,8.17
2018-12-22T20:37:29.410Z,8.10
2018-12-22T20:39:57.623Z,8.73
2018-12-22T20:42:25.817Z,9.90
2018-12-22T20:44:54.025Z,9.03
2018-12-22T20:47:22.331Z,9.13
2018-12-22T20:49:50.545Z,9.47
2018-12-22T20:52:18.742Z,14.53
2018-12-22T20:54:46.959Z,11.90
2018-12-22T20:57:21.727Z,10.47
2018-12-22T20:59:49.938Z,10.43
2018-12-22T21:02:18.142Z,10.97
2018-12-22T21:04:46.433Z,10.50
2018-12-22T21:07:14.626Z,12.87
2018-12-22T21:09:43.038Z,11.73
2018-12-22T21:12:11.234Z,9.93
2018-12-22T21:14:39.438Z,12.03
2018-12-22T21:17:07.660Z,9.87
2018-12-22T21:19:35.855Z,10.50
2018-12-22T21:22:04.067Z,9.63
2018-12-22T21:24:32.257Z,11.03
2018-12-22T21:27:00.478Z,17.07
2018-12-22T21:29:28.669Z,12.90
2018-12-22T21:31:56.978Z,13.77
2018-12-22T21:34:28.417Z,12.40
2018-12-22T21:36:55.426Z,13.67
2018-12-22T21:39:23.638Z,12.67
2018-12-22T21:41:51.870Z,16.60
2018-12-22T21:44:20.071Z,12.53
2018-12-22T21:46:48.289Z,10.03
2018-12-22T21:49:16.491Z,13.83
